createdAt,value
2023-04-19T00:02:18.569Z,22.30
2023-04-19T00:04:47.819Z,22.30
2023-04-19T00:07:15.132Z,22.30
2023-04-19T00:09:42.280Z,22.30
2023-04-19T00:12:09.411Z,22.30
2023-04-19T00:14:36.495Z,22.30
2023-04-19T00:17:03.933Z,22.30
2023-04-19T00:19:31.209Z,22.30
2023-04-19T00:21:58.346Z,22.30
2023-04-19T00:24:25.882Z,22.30
2023-04-19T00:26:53.015Z,22.30
2023-04-19T00:29:20.226Z,22.30
2023-04-19T00:31:47.353Z,22.30
2023-04-19T00:34:14.919Z,22.30
2023-04-19T00:36:42.252Z,22.30
2023-04-19T00:39:09.366Z,22.20
2023-04-19T00:41:36.446Z,22.20
2023-04-19T00:44:03.537Z,22.20
2023-04-19T00:46:30.913Z,22.20
2023-04-19T00:48:58.306Z,22.20
2023-04-19T00:51:27.168Z,22.20
2023-04-19T00:53:54.649Z,22.20
2023-04-19T00:56:24.251Z,22.20
2023-04-19T00:58:51.783Z,22.20
2023-04-19T01:01:19.627Z,22.20
2023-04-19T01:03:47.730Z,22.20
2023-04-19T01:06:16.415Z,22.20
2023-04-19T01:08:43.672Z,22.20
2023-04-19T01:11:11.036Z,22.20
2023-04-19T01:13:38.523Z,22.20
2023-04-19T01:16:07.145Z,22.20
2023-04-19T01:18:37.716Z,22.20
2023-04-19T01:21:05.111Z,22.20
2023-04-19T01:23:32.263Z,22.20
2023-04-19T01:26:01.363Z,22.20
2023-04-19T01:28:28.813Z,22.20
2023-04-19T01:30:56.090Z,22.20
2023-04-19T01:33:23.776Z,22.20
2023-04-19T01:35:51.055Z,22.30
2023-04-19T01:38:18.394Z,22.20
2023-04-19T01:40:45.810Z,22.20
2023-04-19T01:43:15.030Z,22.20
2023-04-19T01:45:42.131Z,22.20
2023-04-19T01:48:09.405Z,22.30
2023-04-19T01:50:36.549Z,22.20
2023-04-19T01:53:03.792Z,22.20
2023-04-19T01:55:30.969Z,22.30
2023-04-19T01:57:58.087Z,22.20
2023-04-19T02:00:25.415Z,22.20
2023-04-19T02:02:52.663Z,22.20
2023-04-19T02:05:20.045Z,22.20
2023-04-19T02:07:47.233Z,22.20
2023-04-19T02:10:14.418Z,22.20
2023-04-19T02:12:43.033Z,22.10
2023-04-19T02:15:10.584Z,22.10
2023-04-19T02:17:39.015Z,22.20
2023-04-19T02:20:08.268Z,22.10
2023-04-19T02:22:35.523Z,22.20
2023-04-19T02:25:02.599Z,22.10
2023-04-19T02:27:29.787Z,22.20
2023-04-19T02:29:57.004Z,22.20
2023-04-19T02:32:24.166Z,22.20
2023-04-19T02:34:51.300Z,22.10
2023-04-19T02:37:18.655Z,22.20
2023-04-19T02:39:46.246Z,22.20
2023-04-19T02:42:13.595Z,22.10
2023-04-19T02:44:40.766Z,22.10
2023-04-19T02:47:08.300Z,22.20
2023-04-19T02:49:37.228Z,22.10
2023-04-19T02:52:04.612Z,22.10
2023-04-19T02:54:33.353Z,22.10
2023-04-19T02:57:01.187Z,22.10
2023-04-19T02:59:28.277Z,22.10
2023-04-19T03:01:55.503Z,22.10
2023-04-19T03:04:22.882Z,22.10
2023-04-19T03:06:49.998Z,22.10
2023-04-19T03:09:17.206Z,22.20
2023-04-19T03:11:44.285Z,22.10
2023-04-19T03:14:11.486Z,22.10
2023-04-19T03:16:39.431Z,22.10
2023-04-19T03:19:06.589Z,22.10
2023-04-19T03:21:33.767Z,22.10
2023-04-19T03:24:01.780Z,22.10
2023-04-19T03:26:28.909Z,22.10
2023-04-19T03:28:56.055Z,22.10
2023-04-19T03:31:23.187Z,22.10
2023-04-19T03:33:50.997Z,22.10
2023-04-19T03:36:18.158Z,22.10
2023-04-19T03:38:45.419Z,22.10
2023-04-19T03:41:26.920Z,22.10
2023-04-19T03:43:53.998Z,22.20
2023-04-19T03:46:21.585Z,22.10
2023-04-19T03:48:48.813Z,22.10
2023-04-19T03:51:16.958Z,22.10
2023-04-19T03:53:44.195Z,22.10
2023-04-19T03:56:11.340Z,22.20
2023-04-19T03:58:38.757Z,22.20
2023-04-19T04:01:08.574Z,22.10
2023-04-19T04:03:36.068Z,22.10
2023-04-19T04:06:03.618Z,22.10
2023-04-19T04:08:30.820Z,22.10
2023-04-19T04:10:57.965Z,22.10
2023-04-19T04:13:25.043Z,22.10
2023-04-19T04:15:52.202Z,22.10
2023-04-19T04:18:19.340Z,22.10
2023-04-19T04:20:46.469Z,22.10
2023-04-19T04:23:14.543Z,22.10
2023-04-19T04:25:43.169Z,22.10
2023-04-19T04:28:10.341Z,22.20
2023-04-19T04:30:37.777Z,22.10
2023-04-19T04:33:04.955Z,22.10
2023-04-19T04:35:32.744Z,22.20
2023-04-19T04:38:00.208Z,22.10
2023-04-19T04:40:28.033Z,22.10
2023-04-19T04:42:55.164Z,22.10
2023-04-19T04:45:22.620Z,22.10
2023-04-19T04:47:49.930Z,22.10
2023-04-19T04:50:17.162Z,22.10
2023-04-19T04:52:44.412Z,22.10
2023-04-19T04:55:11.591Z,22.10
2023-04-19T04:57:38.736Z,22.10
2023-04-19T05:00:07.096Z,22.20
2023-04-19T05:02:34.376Z,22.20
2023-04-19T05:05:01.563Z,22.10
2023-04-19T05:07:28.736Z,22.10
2023-04-19T05:09:55.937Z,22.20
2023-04-19T05:12:23.072Z,22.20
2023-04-19T05:14:50.246Z,22.20
2023-04-19T05:17:17.544Z,22.30
2023-04-19T05:19:44.825Z,22.30
2023-04-19T05:22:12.087Z,22.30
2023-04-19T05:24:41.160Z,22.30
2023-04-19T05:27:09.857Z,22.40
2023-04-19T05:29:37.660Z,22.40
2023-04-19T05:32:04.908Z,22.50
2023-04-19T05:34:32.033Z,22.60
2023-04-19T05:36:59.226Z,22.60
2023-04-19T05:39:26.602Z,22.60
2023-04-19T05:41:54.094Z,22.50
2023-04-19T05:44:21.325Z,22.50
2023-04-19T05:46:48.453Z,22.60
2023-04-19T05:49:15.609Z,22.60
2023-04-19T05:51:42.761Z,22.70
2023-04-19T05:54:12.861Z,22.70
2023-04-19T05:56:40.144Z,22.80
2023-04-19T05:59:08.499Z,22.80
2023-04-19T06:01:35.747Z,22.80
2023-04-19T06:04:03.186Z,22.90
2023-04-19T06:06:30.421Z,23.00
2023-04-19T06:08:57.597Z,23.10
2023-04-19T06:11:31.755Z,23.20
2023-04-19T06:14:06.392Z,23.20
2023-04-19T06:16:33.575Z,23.30
2023-04-19T06:19:01.089Z,23.40
2023-04-19T06:21:32.349Z,23.40
2023-04-19T06:23:59.616Z,23.50
2023-04-19T06:26:27.117Z,23.50
2023-04-19T06:28:54.277Z,23.60
2023-04-19T06:31:21.802Z,23.70
2023-04-19T06:33:49.268Z,23.70
2023-04-19T06:36:17.454Z,23.70
2023-04-19T06:38:46.620Z,23.80
2023-04-19T06:41:13.851Z,23.80
2023-04-19T06:43:42.891Z,23.90
2023-04-19T06:46:10.186Z,23.90
2023-04-19T06:48:38.287Z,23.90
2023-04-19T06:51:05.812Z,24.00
2023-04-19T06:53:33.014Z,24.00
2023-04-19T06:56:02.116Z,24.00
2023-04-19T06:58:30.534Z,24.10
2023-04-19T07:00:58.535Z,24.10
2023-04-19T07:03:26.403Z,24.20
2023-04-19T07:05:56.608Z,24.20
2023-04-19T07:08:32.160Z,24.20
2023-04-19T07:11:06.352Z,24.30
2023-04-19T07:13:33.492Z,24.30
2023-04-19T07:16:03.941Z,24.30
2023-04-19T07:18:31.870Z,24.30
2023-04-19T07:20:59.109Z,24.40
2023-04-19T07:23:26.191Z,24.40
2023-04-19T07:25:53.345Z,24.40
2023-04-19T07:28:20.542Z,24.40
2023-04-19T07:30:48.348Z,24.50
2023-04-19T07:33:16.065Z,24.50
2023-04-19T07:35:43.382Z,24.50
2023-04-19T07:38:10.476Z,24.60
2023-04-19T07:40:37.791Z,24.70
2023-04-19T07:43:05.574Z,24.70
2023-04-19T07:45:33.580Z,24.70
2023-04-19T07:48:00.914Z,24.80
2023-04-19T07:50:29.001Z,24.90
2023-04-19T07:52:56.905Z,24.90
2023-04-19T07:55:25.068Z,24.90
2023-04-19T07:57:52.499Z,25.00
2023-04-19T08:00:21.768Z,25.00
2023-04-19T08:02:49.812Z,25.10
2023-04-19T08:05:17.804Z,25.10
2023-04-19T08:07:45.446Z,25.10
2023-04-19T08:10:13.059Z,25.10
2023-04-19T08:12:56.996Z,25.20
2023-04-19T08:16:14.838Z,25.20
2023-04-19T08:18:16.379Z,25.20
2023-04-19T08:20:43.596Z,25.30
2023-04-19T08:23:21.537Z,25.30
2023-04-19T08:25:52.361Z,25.30
2023-04-19T08:28:19.682Z,25.30
2023-04-19T08:30:46.941Z,25.40
2023-04-19T08:33:14.118Z,25.40
2023-04-19T08:35:42.025Z,25.40
2023-04-19T08:38:10.202Z,25.50
2023-04-19T08:40:42.224Z,25.50
2023-04-19T08:43:09.515Z,25.60
2023-04-19T08:45:37.518Z,25.60
2023-04-19T08:48:06.523Z,25.50
2023-04-19T08:50:40.720Z,25.40
2023-04-19T08:53:24.992Z,25.40
2023-04-19T08:56:12.843Z,25.40
2023-04-19T09:01:30.904Z,25.40
2023-04-19T09:04:16.203Z,25.40
2023-04-19T09:06:47.944Z,25.40
2023-04-19T09:11:52.167Z,25.40
2023-04-19T09:14:21.156Z,25.50
2023-04-19T09:16:48.660Z,25.50
2023-04-19T09:19:23.928Z,25.50
2023-04-19T09:21:54.765Z,25.50
2023-04-19T09:25:14.538Z,25.50
2023-04-19T09:27:29.658Z,25.50
2023-04-19T09:30:00.358Z,25.50
2023-04-19T09:32:29.270Z,25.50
2023-04-19T09:34:59.176Z,25.50
2023-04-19T09:39:57.755Z,25.60
2023-04-19T09:42:47.353Z,25.60
2023-04-19T09:45:29.379Z,25.60
2023-04-19T09:48:10.352Z,25.60
2023-04-19T09:51:03.194Z,25.60
2023-04-19T09:53:36.917Z,25.60
2023-04-19T09:56:06.431Z,25.70
2023-04-19T09:58:49.953Z,25.70
2023-04-19T10:01:24.511Z,25.70
2023-04-19T10:03:52.876Z,25.70
2023-04-19T10:08:53.563Z,25.70
2023-04-19T10:11:22.976Z,25.70
2023-04-19T10:13:55.474Z,25.70
2023-04-19T10:16:22.908Z,25.70
2023-04-19T10:18:52.478Z,25.70
2023-04-19T10:21:21.198Z,25.70
2023-04-19T10:23:48.876Z,25.70
2023-04-19T10:26:16.323Z,25.70
2023-04-19T10:28:43.546Z,25.70
2023-04-19T10:31:13.863Z,25.70
2023-04-19T10:33:42.248Z,25.70
2023-04-19T10:36:11.302Z,25.80
2023-04-19T10:38:49.673Z,25.80
2023-04-19T10:41:19.258Z,25.80
2023-04-19T10:44:07.607Z,25.80
2023-04-19T10:46:40.404Z,25.80
2023-04-19T10:49:10.105Z,25.60
2023-04-19T10:51:47.765Z,25.50
2023-04-19T10:54:32.026Z,25.40
2023-04-19T10:57:08.014Z,25.50
2023-04-19T10:59:36.922Z,25.50
2023-04-19T11:02:06.420Z,25.60
2023-04-19T11:04:58.674Z,25.70
2023-04-19T11:07:25.861Z,25.70
2023-04-19T11:09:53.139Z,25.70
2023-04-19T11:12:21.567Z,25.80
2023-04-19T11:14:57.812Z,25.80
2023-04-19T11:17:32.071Z,25.80
2023-04-19T11:20:02.923Z,25.90
2023-04-19T11:22:38.865Z,25.90
2023-04-19T11:25:21.177Z,26.00
2023-04-19T11:27:53.649Z,26.00
2023-04-19T11:30:23.099Z,26.00
2023-04-19T11:32:53.430Z,26.10
2023-04-19T11:35:23.427Z,26.10
2023-04-19T11:37:51.304Z,26.10
2023-04-19T11:40:19.940Z,26.10
2023-04-19T11:42:47.557Z,26.10
2023-04-19T11:45:39.664Z,26.10
2023-04-19T11:48:13.560Z,26.10
2023-04-19T11:50:42.984Z,26.10
2023-04-19T11:53:14.853Z,26.10
2023-04-19T11:55:58.059Z,26.10
2023-04-19T11:58:32.245Z,26.20
2023-04-19T12:01:13.651Z,26.20
2023-04-19T12:03:45.512Z,26.30
2023-04-19T12:06:16.198Z,26.30
2023-04-19T12:08:45.638Z,26.30
2023-04-19T12:11:13.204Z,26.30
2023-04-19T12:13:41.093Z,26.30
2023-04-19T12:16:09.021Z,26.30
2023-04-19T12:18:50.711Z,26.30
2023-04-19T12:21:31.284Z,26.30
2023-04-19T12:24:00.465Z,26.20
2023-04-19T12:26:29.133Z,26.00
2023-04-19T12:28:57.271Z,26.00
2023-04-19T12:31:24.784Z,25.90
2023-04-19T12:33:52.088Z,26.00
2023-04-19T12:36:19.513Z,26.00
2023-04-19T12:38:47.119Z,26.10
2023-04-19T12:41:14.284Z,26.10
2023-04-19T12:43:41.450Z,26.20
2023-04-19T12:46:08.644Z,26.10
2023-04-19T12:48:36.148Z,26.10
2023-04-19T12:51:04.526Z,26.10
2023-04-19T12:53:31.694Z,26.10
2023-04-19T12:55:58.867Z,26.10
2023-04-19T12:58:28.307Z,26.20
2023-04-19T13:00:55.566Z,26.20
2023-04-19T13:03:23.672Z,26.20
2023-04-19T13:05:51.277Z,26.20
2023-04-19T13:08:28.185Z,26.20
2023-04-19T13:11:01.094Z,26.30
2023-04-19T13:13:29.889Z,26.30
2023-04-19T13:15:57.106Z,26.30
2023-04-19T13:18:24.742Z,26.40
2023-04-19T13:20:54.041Z,26.40
2023-04-19T13:23:21.760Z,26.50
2023-04-19T13:25:48.900Z,26.50
2023-04-19T13:28:16.032Z,26.50
2023-04-19T13:30:43.164Z,26.50
2023-04-19T13:33:10.420Z,26.50
2023-04-19T13:35:44.210Z,26.50
2023-04-19T13:38:11.398Z,26.50
2023-04-19T13:40:38.609Z,26.50
2023-04-19T13:43:05.744Z,26.40
2023-04-19T13:45:32.926Z,26.40
2023-04-19T13:48:00.141Z,26.30
2023-04-19T13:50:27.608Z,26.30
2023-04-19T13:52:54.720Z,26.30
2023-04-19T13:55:21.958Z,26.20
2023-04-19T13:57:49.294Z,26.20
2023-04-19T14:00:16.852Z,26.20
2023-04-19T14:02:45.222Z,26.20
2023-04-19T14:05:12.598Z,26.20
2023-04-19T14:07:40.796Z,26.20
2023-04-19T14:10:10.094Z,26.20
2023-04-19T14:12:37.322Z,26.20
2023-04-19T14:15:04.887Z,26.20
2023-04-19T14:17:32.261Z,26.20
2023-04-19T14:19:59.348Z,26.20
2023-04-19T14:22:26.770Z,26.20
2023-04-19T14:24:53.986Z,26.20
2023-04-19T14:27:21.180Z,26.20
2023-04-19T14:29:48.385Z,26.20
2023-04-19T14:32:25.865Z,26.20
2023-04-19T14:34:58.743Z,26.20
2023-04-19T14:37:26.166Z,26.20
2023-04-19T14:39:53.617Z,26.20
2023-04-19T14:42:22.800Z,26.20
2023-04-19T14:44:53.368Z,26.10
2023-04-19T14:47:21.241Z,26.10
2023-04-19T14:49:48.619Z,26.10
2023-04-19T14:52:16.522Z,26.10
2023-04-19T14:54:43.696Z,26.10
2023-04-19T14:57:10.915Z,26.00
2023-04-19T14:59:38.159Z,25.90
2023-04-19T15:02:05.953Z,25.90
2023-04-19T15:04:39.930Z,25.90
2023-04-19T15:07:08.254Z,25.80
2023-04-19T15:09:35.699Z,25.80
2023-04-19T15:12:02.877Z,25.80
2023-04-19T15:14:30.206Z,25.70
2023-04-19T15:16:57.503Z,25.70
2023-04-19T15:19:24.769Z,25.70
2023-04-19T15:21:51.899Z,25.70
2023-04-19T15:24:19.169Z,25.70
2023-04-19T15:26:46.293Z,25.60
2023-04-19T15:29:13.683Z,25.60
2023-04-19T15:31:40.920Z,25.60
2023-04-19T15:34:08.057Z,25.60
2023-04-19T15:36:35.168Z,25.60
2023-04-19T15:39:02.354Z,25.50
2023-04-19T15:41:29.439Z,25.60
2023-04-19T15:43:57.836Z,25.60
2023-04-19T15:46:25.119Z,25.50
2023-04-19T15:48:52.300Z,25.50
2023-04-19T15:51:19.485Z,25.50
2023-04-19T15:53:46.601Z,25.50
2023-04-19T15:56:13.688Z,25.50
2023-04-19T15:58:40.808Z,25.40
2023-04-19T16:01:15.755Z,25.40
2023-04-19T16:03:45.188Z,25.40
2023-04-19T16:06:12.480Z,25.40
2023-04-19T16:08:39.789Z,25.40
2023-04-19T16:11:06.895Z,25.40
2023-04-19T16:13:34.032Z,25.40
2023-04-19T16:16:01.840Z,25.40
2023-04-19T16:18:29.076Z,25.30
2023-04-19T16:20:56.213Z,25.30
2023-04-19T16:23:25.137Z,25.30
2023-04-19T16:25:52.992Z,25.20
2023-04-19T16:28:21.369Z,25.30
2023-04-19T16:30:48.631Z,25.30
2023-04-19T16:33:16.063Z,25.20
2023-04-19T16:35:43.356Z,25.30
2023-04-19T16:38:10.741Z,25.20
2023-04-19T16:40:37.929Z,25.20
2023-04-19T16:43:06.486Z,25.20
2023-04-19T16:45:34.025Z,25.10
2023-04-19T16:48:01.375Z,25.10
2023-04-19T16:50:28.517Z,25.10
2023-04-19T16:52:55.740Z,25.10
2023-04-19T16:55:22.989Z,25.00
2023-04-19T16:57:51.297Z,25.00
2023-04-19T17:00:18.901Z,25.00
2023-04-19T17:02:46.195Z,24.90
2023-04-19T17:05:14.614Z,24.90
2023-04-19T17:07:41.970Z,24.90
2023-04-19T17:10:09.845Z,24.80
2023-04-19T17:12:37.110Z,24.80
2023-04-19T17:15:04.692Z,24.80
2023-04-19T17:17:31.938Z,24.80
2023-04-19T17:19:59.255Z,24.70
2023-04-19T17:22:26.415Z,24.70
2023-04-19T17:24:55.989Z,24.70
2023-04-19T17:27:23.235Z,24.70
2023-04-19T17:29:50.481Z,24.60
2023-04-19T17:32:17.681Z,24.60
2023-04-19T17:34:44.942Z,24.60
2023-04-19T17:37:12.115Z,24.60
2023-04-19T17:39:39.232Z,24.60
2023-04-19T17:42:06.569Z,24.50
2023-04-19T17:44:33.737Z,24.50
2023-04-19T17:47:01.075Z,24.50
2023-04-19T17:49:29.319Z,24.40
2023-04-19T17:51:56.895Z,24.40
2023-04-19T17:54:24.037Z,24.30
2023-04-19T17:56:52.717Z,24.30
2023-04-19T17:59:19.958Z,24.30
2023-04-19T18:01:47.225Z,24.20
2023-04-19T18:04:17.973Z,24.20
2023-04-19T18:06:46.040Z,24.10
2023-04-19T18:09:13.439Z,24.10
2023-04-19T18:11:41.153Z,24.10
2023-04-19T18:14:08.511Z,24.10
2023-04-19T18:16:35.769Z,24.00
2023-04-19T18:19:03.064Z,24.00
2023-04-19T18:21:30.282Z,23.90
2023-04-19T18:23:57.400Z,23.90
2023-04-19T18:26:24.541Z,23.90
2023-04-19T18:28:51.967Z,23.90
2023-04-19T18:31:19.140Z,23.80
2023-04-19T18:33:46.269Z,23.80
2023-04-19T18:36:13.358Z,23.80
2023-04-19T18:38:40.507Z,23.80
2023-04-19T18:41:08.041Z,23.70
2023-04-19T18:43:35.139Z,23.70
2023-04-19T18:46:02.565Z,23.70
2023-04-19T18:48:30.105Z,23.70
2023-04-19T18:50:57.967Z,23.60
2023-04-19T18:53:31.857Z,23.60
2023-04-19T18:55:59.199Z,23.60
2023-04-19T18:58:28.607Z,23.60
2023-04-19T19:00:57.048Z,23.60
2023-04-19T19:05:55.309Z,23.50
2023-04-19T19:08:22.928Z,23.50
2023-04-19T19:11:13.755Z,23.50
2023-04-19T19:13:37.348Z,23.40
2023-04-19T19:16:05.900Z,23.40
2023-04-19T19:18:33.154Z,23.40
2023-04-19T19:21:00.539Z,23.40
2023-04-19T19:23:35.899Z,23.40
2023-04-19T19:26:06.604Z,23.40
2023-04-19T19:28:34.491Z,23.40
2023-04-19T19:31:01.861Z,23.40
2023-04-19T19:33:32.813Z,23.40
2023-04-19T19:36:00.145Z,23.40
2023-04-19T19:38:27.401Z,23.30
2023-04-19T19:41:30.906Z,23.30
2023-04-19T19:43:41.919Z,23.30
2023-04-19T19:46:10.727Z,23.30
2023-04-19T19:48:42.356Z,23.30
2023-04-19T19:51:36.195Z,23.30
2023-04-19T19:53:57.409Z,23.30
2023-04-19T19:56:25.376Z,23.30
2023-04-19T19:58:52.552Z,23.20
2023-04-19T20:01:22.799Z,23.20
2023-04-19T20:03:50.844Z,23.20
2023-04-19T20:07:07.785Z,23.20
2023-04-19T20:09:05.335Z,23.20
2023-04-19T20:11:32.528Z,23.20
2023-04-19T20:13:59.613Z,23.10
2023-04-19T20:16:27.408Z,23.10
2023-04-19T20:18:54.762Z,23.10
2023-04-19T20:21:21.905Z,23.10
2023-04-19T20:23:48.993Z,23.10
2023-04-19T20:26:16.080Z,23.10
2023-04-19T20:28:43.219Z,23.10
2023-04-19T20:31:10.761Z,23.10
2023-04-19T20:33:37.920Z,23.10
2023-04-19T20:36:05.078Z,23.10
2023-04-19T20:38:32.730Z,23.10
2023-04-19T20:40:59.789Z,23.00
2023-04-19T20:43:27.090Z,23.00
2023-04-19T20:45:54.260Z,23.00
2023-04-19T20:48:21.552Z,23.00
2023-04-19T20:50:48.741Z,23.00
2023-04-19T20:53:15.850Z,23.00
2023-04-19T20:55:43.782Z,23.00
2023-04-19T20:58:11.272Z,23.00
2023-04-19T21:00:38.407Z,23.00
2023-04-19T21:03:06.611Z,23.00
2023-04-19T21:05:35.258Z,23.00
2023-04-19T21:08:02.740Z,23.00
2023-04-19T21:10:30.019Z,23.00
2023-04-19T21:12:57.205Z,23.00
2023-04-19T21:15:24.372Z,23.00
2023-04-19T21:17:51.602Z,23.00
2023-04-19T21:20:18.897Z,23.00
2023-04-19T21:22:47.300Z,23.00
2023-04-19T21:25:14.627Z,22.90
2023-04-19T21:27:42.473Z,22.90
2023-04-19T21:30:10.665Z,22.90
2023-04-19T21:32:37.842Z,22.90
2023-04-19T21:35:05.437Z,22.90
2023-04-19T21:37:32.551Z,22.90
2023-04-19T21:39:59.730Z,22.90
2023-04-19T21:42:26.847Z,22.80
2023-04-19T21:44:53.973Z,22.90
2023-04-19T21:47:21.461Z,22.80
2023-04-19T21:49:48.586Z,22.80
2023-04-19T21:52:15.675Z,22.80
2023-04-19T21:54:42.792Z,22.80
2023-04-19T21:57:11.180Z,22.80
2023-04-19T21:59:38.560Z,22.70
2023-04-19T22:02:05.862Z,22.70
2023-04-19T22:04:33.171Z,22.70
2023-04-19T22:07:03.336Z,22.70
2023-04-19T22:09:31.147Z,22.70
2023-04-19T22:11:58.369Z,22.70
2023-04-19T22:14:25.467Z,22.70
2023-04-19T22:16:54.074Z,22.70
2023-04-19T22:19:21.370Z,22.70
2023-04-19T22:21:48.558Z,22.70
2023-04-19T22:24:15.974Z,22.70
2023-04-19T22:26:43.501Z,22.70
2023-04-19T22:29:10.694Z,22.70
2023-04-19T22:31:37.894Z,22.70
2023-04-19T22:34:05.106Z,22.70
2023-04-19T22:36:32.297Z,22.60
2023-04-19T22:38:59.549Z,22.70
2023-04-19T22:41:26.704Z,22.70
2023-04-19T22:43:54.359Z,22.70
2023-04-19T22:46:21.616Z,22.60
2023-04-19T22:48:50.054Z,22.60
2023-04-19T22:51:18.393Z,22.60
2023-04-19T22:53:45.518Z,22.70
2023-04-19T22:56:12.692Z,22.60
2023-04-19T22:58:39.803Z,22.70
2023-04-19T23:01:07.012Z,22.60
2023-04-19T23:03:34.410Z,22.70
2023-04-19T23:06:03.488Z,22.60
2023-04-19T23:08:31.094Z,22.70
2023-04-19T23:10:58.204Z,22.70
2023-04-19T23:13:25.288Z,22.60
2023-04-19T23:15:52.992Z,22.60
2023-04-19T23:18:21.439Z,22.60
2023-04-19T23:20:48.601Z,22.60
2023-04-19T23:23:15.791Z,22.60
2023-04-19T23:25:42.971Z,22.60
2023-04-19T23:28:12.479Z,22.50
2023-04-19T23:30:39.998Z,22.50
2023-04-19T23:33:07.198Z,22.50
2023-04-19T23:35:34.467Z,22.50
2023-04-19T23:38:01.582Z,22.50
2023-04-19T23:40:28.784Z,22.50
2023-04-19T23:42:55.959Z,22.50
2023-04-19T23:45:23.134Z,22.50
2023-04-19T23:47:50.947Z,22.50
2023-04-19T23:50:18.131Z,22.50
2023-04-19T23:52:45.265Z,22.50
2023-04-19T23:55:12.835Z,22.50
2023-04-19T23:57:40.093Z,22.50
